Time;durP1;ratioP1;P1;durP2;ratioP2;P2;SDS_P1;SDS_P2;PMS_P1;PMS_P2;Temp;Humidity;BMP_temperature;BMP_pressure;BME280_temperature;BME280_humidity;BME280_pressure;Samples;Min_cycle;Max_cycle;Signal;HPM_P1;HPM_P2
2021/11/07 00:05:03;;;;;;;4.15;1.80;;;22.50;53.30;;;;;;5037336;28;20033;-59
2021/11/07 00:08:30;;;;;;;2.75;1.52;;;22.50;53.30;;;;;;5040387;28;20135;-59
2021/11/07 00:10:36;;;;;;;4.10;1.63;;;22.50;53.30;;;;;;5038676;28;20061;-59
2021/11/07 00:16:03;;;;;;;2.95;1.40;;;22.40;53.30;;;;;;5026167;28;20037;-59
2021/11/07 00:18:39;;;;;;;3.30;1.60;;;22.40;53.40;;;;;;5034095;28;20482;-59
2021/11/07 00:21:13;;;;;;;3.05;1.67;;;22.40;53.40;;;;;;5036377;28;20037;-56
2021/11/07 00:28:42;;;;;;;2.50;1.70;;;22.30;53.40;;;;;;5036671;28;20029;-59
2021/11/07 00:34:26;;;;;;;2.70;1.42;;;22.30;53.50;;;;;;5032813;28;20544;-56
2021/11/07 00:37:04;;;;;;;2.72;1.50;;;22.20;54.00;;;;;;5039560;28;20033;-57
2021/11/07 00:43:00;;;;;;;3.30;1.42;;;22.20;53.50;;;;;;5032048;28;20040;-55
2021/11/07 00:45:02;;;;;;;2.75;1.52;;;22.20;53.50;;;;;;5031381;28;20111;-60
2021/11/07 00:50:07;;;;;;;2.50;1.40;;;22.10;53.50;;;;;;5044534;28;20033;-57
2021/11/07 00:52:39;;;;;;;2.97;1.50;;;22.10;53.50;;;;;;5033966;28;20033;-56
2021/11/07 00:55:13;;;;;;;2.95;1.63;;;22.10;53.60;;;;;;5035483;28;20029;-60
2021/11/07 00:57:52;;;;;;;2.60;1.50;;;22.10;53.60;;;;;;5034301;28;20381;-59
2021/11/07 01:00:48;;;;;;;5.85;2.10;;;22.00;53.60;;;;;;5033038;28;20025;-57
2021/11/07 01:03:11;;;;;;;2.35;1.60;;;22.00;53.60;;;;;;5027416;28;20038;-52
2021/11/07 01:05:37;;;;;;;2.60;1.50;;;22.00;53.60;;;;;;5040125;28;20033;-59
2021/11/07 01:08:04;;;;;;;3.05;1.80;;;22.00;53.60;;;;;;5039774;28;20021;-58
2021/11/07 01:10:30;;;;;;;2.53;1.42;;;22.00;53.60;;;;;;5044133;28;20455;-59
2021/11/07 01:12:58;;;;;;;2.47;1.50;;;21.90;53.60;;;;;;5042373;28;20206;-59
2021/11/07 01:15:25;;;;;;;2.30;1.60;;;21.90;53.60;;;;;;5046503;28;20031;-59
2021/11/07 01:17:54;;;;;;;3.35;1.60;;;21.90;53.60;;;;;;5029897;28;20028;-59
2021/11/07 01:20:22;;;;;;;2.55;1.30;;;21.90;53.60;;;;;;5041510;28;20025;-59
2021/11/07 01:23:16;;;;;;;2.55;1.58;;;21.90;53.70;;;;;;5034212;28;20033;-59
2021/11/07 01:25:46;;;;;;;2.30;1.50;;;21.90;53.70;;;;;;5036469;28;20166;-59
2021/11/07 01:28:12;;;;;;;2.00;1.27;;;21.80;53.70;;;;;;5033300;28;20064;-59
2021/11/07 01:30:46;;;;;;;2.42;1.50;;;21.80;53.70;;;;;;5040613;28;20040;-59
2021/11/07 01:33:18;;;;;;;2.60;1.40;;;21.80;53.70;;;;;;5038745;28;20030;-59
2021/11/07 01:38:33;;;;;;;1.95;1.33;;;21.80;53.80;;;;;;5035747;28;20037;-57
2021/11/07 01:41:17;;;;;;;1.98;1.40;;;21.70;53.70;;;;;;5040111;28;20500;-58
2021/11/07 01:43:44;;;;;;;2.58;1.40;;;21.70;53.80;;;;;;5038086;28;20033;-58
2021/11/07 01:49:09;;;;;;;2.10;1.30;;;21.70;53.80;;;;;;5032929;28;20061;-59
2021/11/07 01:51:36;;;;;;;2.38;1.40;;;21.70;53.80;;;;;;5030164;28;20049;-58
2021/11/07 01:54:26;;;;;;;2.20;1.40;;;21.60;53.80;;;;;;5038215;28;20040;-58
2021/11/07 01:56:52;;;;;;;1.80;1.33;;;21.60;53.90;;;;;;5029703;28;20056;-59
2021/11/07 01:59:18;;;;;;;2.08;1.40;;;21.60;53.90;;;;;;5038610;28;20037;-59
2021/11/07 02:01:55;;;;;;;2.42;1.52;;;21.60;53.90;;;;;;5030320;28;20397;-57
2021/11/07 02:04:21;;;;;;;1.80;1.38;;;21.60;54.00;;;;;;5067308;28;20713;-57
2021/11/07 02:06:48;;;;;;;2.20;1.50;;;21.50;54.00;;;;;;5036274;28;20152;-57
2021/11/07 02:09:13;;;;;;;2.17;1.40;;;21.60;54.00;;;;;;5041623;28;20139;-57
2021/11/07 02:11:39;;;;;;;2.30;1.30;;;21.50;53.90;;;;;;5031966;28;20148;-59
2021/11/07 02:14:06;;;;;;;2.25;1.45;;;21.50;54.00;;;;;;5035898;28;20049;-59
2021/11/07 02:16:32;;;;;;;1.77;1.17;;;21.50;53.90;;;;;;5036956;28;20071;-59
2021/11/07 02:18:58;;;;;;;1.67;1.30;;;21.50;54.00;;;;;;5040395;28;20044;-59
2021/11/07 02:21:23;;;;;;;1.90;1.25;;;21.50;54.00;;;;;;5043395;28;20037;-58
2021/11/07 02:23:49;;;;;;;2.38;1.30;;;21.50;54.00;;;;;;5036394;28;20040;-59
2021/11/07 02:26:15;;;;;;;1.55;1.20;;;21.40;54.00;;;;;;5040013;28;20045;-58
2021/11/07 02:28:44;;;;;;;2.22;1.35;;;21.40;53.90;;;;;;5033623;28;20095;-59
2021/11/07 02:31:13;;;;;;;2.28;1.40;;;21.40;54.00;;;;;;5027534;28;20040;-58
2021/11/07 02:33:40;;;;;;;2.75;1.50;;;21.40;54.50;;;;;;5031408;28;20052;-58
2021/11/07 02:36:14;;;;;;;1.92;1.30;;;21.40;54.00;;;;;;5037155;28;20061;-59
2021/11/07 02:38:41;;;;;;;1.88;1.40;;;21.40;54.00;;;;;;5035373;28;20123;-58
2021/11/07 02:41:08;;;;;;;2.45;1.40;;;21.40;54.10;;;;;;5035200;28;20070;-59
2021/11/07 02:43:50;;;;;;;1.45;1.10;;;21.40;54.10;;;;;;5033292;28;20037;-59
2021/11/07 02:46:17;;;;;;;2.15;1.27;;;21.40;54.10;;;;;;5032054;28;20025;-59
2021/11/07 02:48:51;;;;;;;2.95;1.40;;;21.30;54.00;;;;;;5044875;28;20072;-59
2021/11/07 02:51:42;;;;;;;1.98;1.33;;;21.30;54.10;;;;;;5033021;28;20144;-60
2021/11/07 02:54:08;;;;;;;2.63;1.60;;;21.30;54.00;;;;;;5039091;28;20136;-59
2021/11/07 02:56:35;;;;;;;2.30;1.38;;;21.30;54.10;;;;;;5032609;28;20758;-59
2021/11/07 02:59:01;;;;;;;2.28;1.30;;;21.30;54.10;;;;;;5041598;28;20098;-59
2021/11/07 03:01:28;;;;;;;2.72;1.48;;;21.30;54.10;;;;;;5041063;28;20520;-59
2021/11/07 03:04:01;;;;;;;1.77;1.20;;;21.30;54.10;;;;;;5044012;28;20022;-59
2021/11/07 03:06:31;;;;;;;2.33;1.63;;;21.20;54.50;;;;;;5034455;28;20052;-58
2021/11/07 03:08:57;;;;;;;2.55;1.33;;;21.20;54.00;;;;;;5036642;28;20035;-59
2021/11/07 03:11:23;;;;;;;1.92;1.20;;;21.20;54.00;;;;;;5032427;28;20033;-59
2021/11/07 03:13:49;;;;;;;1.90;1.33;;;21.20;54.00;;;;;;5039652;28;20527;-59
2021/11/07 03:16:15;;;;;;;1.70;1.20;;;21.20;54.10;;;;;;5034998;28;20520;-59
2021/11/07 03:18:40;;;;;;;1.70;1.30;;;21.20;54.10;;;;;;5046998;28;20161;-60
2021/11/07 03:21:08;;;;;;;2.15;1.52;;;21.20;54.10;;;;;;5030770;28;20183;-58
2021/11/07 03:23:38;;;;;;;1.90;1.20;;;21.20;54.10;;;;;;5040478;28;20094;-59
2021/11/07 03:26:10;;;;;;;1.98;1.20;;;21.20;54.20;;;;;;5037674;28;20033;-59
2021/11/07 03:28:36;;;;;;;2.33;1.58;;;21.10;54.10;;;;;;5038517;28;20097;-59
2021/11/07 03:32:07;;;;;;;1.80;1.25;;;21.10;54.10;;;;;;5039213;28;20537;-58
2021/11/07 03:34:01;;;;;;;1.73;1.20;;;21.10;54.10;;;;;;5036604;28;20041;-57
2021/11/07 03:36:32;;;;;;;1.67;1.20;;;21.10;54.10;;;;;;5032348;28;21216;-59
2021/11/07 03:38:57;;;;;;;2.30;1.50;;;21.10;54.10;;;;;;5043592;28;20125;-59
2021/11/07 03:41:23;;;;;;;1.98;1.50;;;21.10;54.20;;;;;;5038209;28;20522;-59
2021/11/07 03:43:49;;;;;;;1.95;1.35;;;21.10;54.20;;;;;;5034222;28;20049;-59
2021/11/07 03:46:15;;;;;;;1.65;1.25;;;21.10;54.20;;;;;;5038871;28;20039;-58
2021/11/07 03:48:41;;;;;;;1.92;1.50;;;21.10;54.20;;;;;;5030755;28;20042;-58
2021/11/07 03:51:12;;;;;;;1.60;1.30;;;21.00;54.20;;;;;;5038897;28;20032;-58
2021/11/07 03:53:38;;;;;;;1.80;1.30;;;21.10;54.20;;;;;;5039950;28;20140;-59
2021/11/07 03:56:04;;;;;;;1.83;1.40;;;21.00;54.20;;;;;;5037829;28;20121;-59
2021/11/07 03:58:30;;;;;;;1.80;1.20;;;21.00;54.20;;;;;;5028504;28;20126;-59
2021/11/07 04:00:55;;;;;;;2.10;1.38;;;21.00;54.20;;;;;;5039515;28;20038;-59
2021/11/07 04:03:21;;;;;;;2.22;1.20;;;21.00;54.20;;;;;;5034591;28;20026;-59
2021/11/07 04:05:46;;;;;;;2.38;1.45;;;21.00;54.20;;;;;;5037730;28;20045;-56
2021/11/07 04:08:12;;;;;;;2.00;1.30;;;21.00;54.30;;;;;;5035638;28;20120;-55
2021/11/07 04:10:38;;;;;;;1.70;1.20;;;21.00;54.30;;;;;;5037909;28;20037;-58
2021/11/07 04:13:07;;;;;;;1.75;1.40;;;21.00;54.30;;;;;;5034966;28;20893;-60
2021/11/07 04:15:34;;;;;;;2.20;1.50;;;21.00;54.30;;;;;;5033979;28;20072;-59
2021/11/07 04:18:00;;;;;;;2.83;1.40;;;21.00;54.30;;;;;;5034674;28;20063;-54
2021/11/07 04:20:26;;;;;;;1.73;1.30;;;21.00;54.30;;;;;;5036006;28;20068;-59
2021/11/07 04:22:51;;;;;;;1.83;1.30;;;20.90;54.30;;;;;;5031355;28;20029;-58
2021/11/07 04:25:17;;;;;;;1.63;1.20;;;21.00;54.30;;;;;;5039818;28;20031;-57
2021/11/07 04:27:43;;;;;;;1.80;1.20;;;20.90;54.30;;;;;;5033653;28;20048;-59
2021/11/07 04:30:11;;;;;;;2.15;1.20;;;20.90;54.30;;;;;;5037721;28;20566;-58
2021/11/07 04:32:36;;;;;;;1.85;1.20;;;20.90;54.30;;;;;;5030480;28;20060;-58
2021/11/07 04:35:04;;;;;;;2.00;1.25;;;20.90;54.40;;;;;;5034681;28;20520;-56
2021/11/07 04:37:29;;;;;;;1.70;1.30;;;20.90;54.30;;;;;;5030394;28;20025;-58
2021/11/07 04:39:56;;;;;;;2.05;1.10;;;20.90;54.40;;;;;;5038567;28;20511;-57
2021/11/07 04:42:22;;;;;;;1.60;1.23;;;20.90;54.40;;;;;;5031308;28;20431;-57
2021/11/07 04:44:47;;;;;;;1.58;1.20;;;20.90;54.40;;;;;;5038017;28;20120;-56
2021/11/07 04:47:13;;;;;;;1.50;1.20;;;20.90;54.40;;;;;;5034867;28;20559;-59
2021/11/07 04:49:39;;;;;;;2.00;1.38;;;20.90;54.40;;;;;;5035371;28;20029;-59
2021/11/07 04:52:05;;;;;;;1.10;1.00;;;20.90;54.40;;;;;;5030421;28;20040;-58
2021/11/07 04:54:30;;;;;;;1.70;1.25;;;20.90;54.40;;;;;;5036754;28;20126;-57
2021/11/07 04:56:57;;;;;;;1.90;1.20;;;20.80;54.40;;;;;;5029182;28;20137;-56
2021/11/07 04:59:23;;;;;;;1.77;1.20;;;20.90;54.40;;;;;;5039349;28;20025;-58
2021/11/07 05:01:50;;;;;;;1.48;1.15;;;20.90;54.50;;;;;;5039748;28;20476;-58
2021/11/07 05:04:16;;;;;;;1.65;1.17;;;20.90;55.00;;;;;;5032239;28;20120;-59
2021/11/07 05:06:42;;;;;;;1.75;1.30;;;20.80;54.50;;;;;;5028427;28;20086;-58
2021/11/07 05:09:08;;;;;;;1.58;1.20;;;20.80;54.50;;;;;;5029981;28;20135;-55
2021/11/07 05:11:33;;;;;;;1.50;1.10;;;20.80;54.50;;;;;;5031881;28;20089;-58
2021/11/07 05:13:59;;;;;;;1.95;1.20;;;20.80;54.50;;;;;;5041125;28;20072;-59
2021/11/07 05:16:25;;;;;;;1.50;1.10;;;20.80;54.50;;;;;;5029007;28;20765;-59
2021/11/07 05:18:51;;;;;;;1.40;1.10;;;20.80;54.50;;;;;;5035334;28;20033;-59
2021/11/07 05:21:16;;;;;;;1.48;1.00;;;20.80;54.50;;;;;;5034366;28;20032;-56
2021/11/07 05:23:42;;;;;;;1.48;1.10;;;20.80;54.50;;;;;;5033573;28;20189;-60
2021/11/07 05:26:08;;;;;;;1.42;1.00;;;20.80;54.50;;;;;;5033024;28;20044;-58
2021/11/07 05:28:35;;;;;;;1.90;1.20;;;20.80;54.50;;;;;;5034962;28;20032;-58
2021/11/07 05:31:02;;;;;;;1.20;1.00;;;20.80;54.60;;;;;;5034368;28;20051;-59
2021/11/07 05:33:29;;;;;;;1.20;1.10;;;20.80;54.60;;;;;;5036608;28;20467;-57
2021/11/07 05:35:54;;;;;;;1.27;1.15;;;20.70;54.50;;;;;;5033624;28;20026;-58
2021/11/07 05:38:20;;;;;;;1.30;1.10;;;20.80;54.60;;;;;;5031783;28;20417;-58
2021/11/07 05:40:46;;;;;;;1.83;1.13;;;20.80;54.60;;;;;;5041141;28;20036;-58
2021/11/07 05:43:12;;;;;;;1.40;1.20;;;20.70;54.50;;;;;;5031121;28;20055;-59
2021/11/07 05:45:38;;;;;;;1.77;1.10;;;20.70;54.60;;;;;;5032773;28;20078;-58
2021/11/07 05:48:06;;;;;;;1.40;1.10;;;20.70;54.60;;;;;;5032184;28;20486;-59
2021/11/07 05:50:32;;;;;;;1.70;1.10;;;20.70;54.60;;;;;;5034764;28;20021;-58
2021/11/07 05:52:58;;;;;;;1.80;1.10;;;20.70;54.60;;;;;;5031117;28;20030;-58
2021/11/07 05:55:24;;;;;;;1.35;1.10;;;20.70;54.60;;;;;;5034881;28;20045;-59
2021/11/07 05:57:49;;;;;;;1.75;1.10;;;20.70;54.60;;;;;;5036225;28;20183;-59
2021/11/07 06:00:17;;;;;;;2.03;1.23;;;20.70;54.70;;;;;;5034143;28;20033;-57
2021/11/07 06:02:43;;;;;;;1.58;1.10;;;20.70;54.60;;;;;;5035702;28;20520;-58
2021/11/07 06:05:09;;;;;;;1.30;1.00;;;20.70;54.60;;;;;;5038182;28;20079;-58
2021/11/07 06:07:34;;;;;;;1.50;1.15;;;20.70;54.60;;;;;;5033214;28;20025;-58
2021/11/07 06:10:00;;;;;;;1.73;1.13;;;20.70;54.70;;;;;;5027592;28;20056;-59
2021/11/07 06:12:26;;;;;;;1.30;0.90;;;20.70;54.70;;;;;;5032015;28;20693;-59
2021/11/07 06:14:52;;;;;;;1.10;1.00;;;20.70;54.70;;;;;;5034908;28;20148;-54
2021/11/07 06:17:17;;;;;;;1.48;1.10;;;20.70;54.70;;;;;;5038015;28;20104;-57
2021/11/07 06:19:43;;;;;;;1.27;0.90;;;20.60;54.60;;;;;;5037173;28;20044;-59
2021/11/07 06:22:09;;;;;;;1.45;1.00;;;20.60;54.70;;;;;;5030279;28;20101;-58
2021/11/07 06:24:34;;;;;;;1.20;1.00;;;20.60;54.70;;;;;;5030570;28;20381;-57
2021/11/07 06:27:02;;;;;;;1.48;1.10;;;20.60;54.60;;;;;;5026602;28;20148;-59
2021/11/07 06:29:28;;;;;;;1.27;1.08;;;20.60;54.60;;;;;;5034382;28;20041;-57
2021/11/07 06:31:56;;;;;;;1.27;1.00;;;20.60;54.70;;;;;;5037136;28;20413;-55
2021/11/07 06:34:23;;;;;;;1.38;1.00;;;20.60;54.70;;;;;;5041019;28;20025;-59
2021/11/07 06:36:49;;;;;;;1.33;0.98;;;20.60;54.70;;;;;;5033667;28;20410;-58
2021/11/07 06:39:16;;;;;;;1.45;1.00;;;20.60;54.70;;;;;;5039096;28;20022;-58
2021/11/07 06:41:44;;;;;;;1.38;1.10;;;20.60;54.70;;;;;;5041917;28;20052;-57
2021/11/07 06:44:11;;;;;;;1.10;0.95;;;20.60;54.70;;;;;;5034497;28;20094;-59
2021/11/07 06:46:37;;;;;;;1.30;1.00;;;20.60;54.70;;;;;;5034742;28;20033;-58
2021/11/07 06:49:04;;;;;;;1.60;1.02;;;20.60;54.70;;;;;;5041001;28;20342;-58
2021/11/07 06:51:30;;;;;;;1.25;1.00;;;20.60;54.70;;;;;;5039756;28;20036;-56
2021/11/07 06:53:56;;;;;;;1.05;0.90;;;20.60;54.80;;;;;;5039594;28;20100;-59
2021/11/07 06:56:22;;;;;;;1.33;0.90;;;20.60;54.80;;;;;;5040852;28;20408;-56
2021/11/07 06:58:48;;;;;;;1.70;1.00;;;20.60;54.80;;;;;;5035797;28;20021;-58
2021/11/07 07:01:13;;;;;;;1.23;1.00;;;20.50;54.70;;;;;;5039165;28;20033;-58
2021/11/07 07:03:39;;;;;;;1.27;1.00;;;20.50;54.70;;;;;;5034808;28;20385;-59
2021/11/07 07:06:05;;;;;;;1.27;1.00;;;20.50;54.70;;;;;;5040001;28;20040;-59
2021/11/07 07:08:42;;;;;;;1.20;0.90;;;20.50;54.70;;;;;;5038949;28;20060;-56
2021/11/07 07:11:13;;;;;;;1.30;0.90;;;20.50;54.80;;;;;;5040873;28;20037;-58
2021/11/07 07:13:46;;;;;;;1.17;0.90;;;20.50;54.80;;;;;;5039961;28;20397;-59
2021/11/07 07:19:02;;;;;;;0.98;0.90;;;20.50;54.80;;;;;;5042008;28;20500;-58
2021/11/07 07:21:42;;;;;;;1.52;1.00;;;20.50;54.80;;;;;;5034122;28;20052;-55
2021/11/07 07:29:52;;;;;;;1.55;1.00;;;20.50;54.90;;;;;;5036294;28;20032;-58
2021/11/07 07:32:11;;;;;;;1.60;1.00;;;20.50;54.80;;;;;;5030800;28;20061;-57
2021/11/07 07:34:41;;;;;;;1.60;1.10;;;20.40;54.80;;;;;;5033360;28;20022;-59
2021/11/07 07:37:07;;;;;;;0.80;0.75;;;20.40;54.90;;;;;;5041046;28;20029;-57
2021/11/07 07:39:33;;;;;;;1.02;0.90;;;20.50;54.90;;;;;;5035327;28;20377;-59
2021/11/07 07:41:58;;;;;;;1.00;0.80;;;20.50;54.90;;;;;;5037003;28;20044;-57
2021/11/07 07:44:24;;;;;;;0.98;0.88;;;20.40;54.90;;;;;;5037247;28;20077;-57
2021/11/07 07:46:50;;;;;;;1.20;0.90;;;20.50;55.00;;;;;;5035611;28;20119;-58
2021/11/07 07:49:17;;;;;;;1.10;0.80;;;20.40;54.90;;;;;;5033834;28;20450;-58
2021/11/07 07:51:45;;;;;;;0.98;0.80;;;20.40;55.00;;;;;;5031333;28;20109;-58
2021/11/07 07:54:11;;;;;;;1.33;0.90;;;20.40;55.50;;;;;;5034806;28;20026;-56
2021/11/07 07:56:37;;;;;;;0.77;0.70;;;20.40;55.00;;;;;;5033816;28;20039;-54
2021/11/07 07:59:05;;;;;;;1.20;0.90;;;20.40;55.00;;;;;;5035043;28;21247;-56
2021/11/07 08:01:31;;;;;;;1.13;1.00;;;20.40;55.00;;;;;;5031346;28;20033;-58
2021/11/07 08:03:57;;;;;;;1.63;0.90;;;20.50;55.00;;;;;;5043464;28;20376;-58
2021/11/07 08:06:23;;;;;;;0.95;0.80;;;20.40;55.00;;;;;;5038244;28;20025;-56
2021/11/07 08:08:49;;;;;;;1.10;0.80;;;20.40;55.00;;;;;;5030539;28;20923;-57
2021/11/07 08:11:14;;;;;;;2.45;1.10;;;20.40;55.00;;;;;;5037604;28;20021;-58
2021/11/07 08:13:41;;;;;;;1.88;1.00;;;20.40;55.00;;;;;;5037530;28;20029;-59
2021/11/07 08:16:08;;;;;;;1.20;0.90;;;20.50;55.10;;;;;;5043079;28;20025;-58
2021/11/07 08:18:35;;;;;;;1.52;1.00;;;20.40;55.00;;;;;;5034421;28;20106;-56
2021/11/07 08:21:00;;;;;;;1.30;0.90;;;20.40;55.00;;;;;;5037824;28;20508;-58
2021/11/07 08:23:27;;;;;;;1.27;0.90;;;20.40;55.10;;;;;;5028751;28;20033;-58
2021/11/07 08:25:53;;;;;;;1.05;0.90;;;20.40;55.10;;;;;;5034579;28;20512;-55
2021/11/07 08:28:20;;;;;;;1.55;0.95;;;20.40;55.10;;;;;;5033269;28;20029;-57
2021/11/07 08:30:50;;;;;;;1.58;1.10;;;20.40;55.20;;;;;;5037441;28;20028;-58
2021/11/07 08:33:16;;;;;;;1.48;1.00;;;20.40;55.20;;;;;;5038043;28;20036;-59
2021/11/07 08:35:44;;;;;;;1.50;1.00;;;20.40;55.20;;;;;;5038120;28;20477;-56
2021/11/07 08:38:24;;;;;;;1.65;1.00;;;20.40;55.20;;;;;;5031885;28;20105;-53
2021/11/07 08:40:53;;;;;;;1.80;1.10;;;20.40;55.20;;;;;;5033371;28;20397;-57
2021/11/07 09:05:13;;;;;;;1.42;1.00;;;20.40;55.60;;;;;;5040246;28;20029;-59
2021/11/07 09:10:22;;;;;;;1.48;0.88;;;20.40;56.10;;;;;;5027454;28;20026;-58
2021/11/07 09:12:49;;;;;;;1.58;1.10;;;20.40;55.70;;;;;;5026935;28;20053;-59
2021/11/07 09:15:18;;;;;;;1.88;1.10;;;20.40;55.60;;;;;;5033963;28;20040;-58
2021/11/07 09:17:45;;;;;;;1.52;1.00;;;20.40;55.70;;;;;;5028762;28;20036;-59
2021/11/07 09:20:16;;;;;;;2.45;1.10;;;20.40;55.70;;;;;;5026206;28;20135;-58
2021/11/07 09:22:53;;;;;;;1.60;1.00;;;20.40;55.70;;;;;;5033441;28;20029;-57
2021/11/07 09:30:42;;;;;;;2.20;1.13;;;20.40;55.80;;;;;;5031782;28;20049;-60
2021/11/07 09:33:14;;;;;;;1.77;1.20;;;20.30;56.20;;;;;;5036569;28;20361;-60
2021/11/07 09:40:37;;;;;;;1.73;1.20;;;20.40;55.80;;;;;;5031096;28;20025;-58
2021/11/07 09:48:11;;;;;;;2.05;1.23;;;20.30;55.90;;;;;;5027287;28;20053;-55
2021/11/07 09:50:37;;;;;;;1.88;1.23;;;20.30;55.90;;;;;;5032555;28;20037;-60
2021/11/07 09:53:04;;;;;;;3.08;1.25;;;20.40;55.90;;;;;;5030614;28;20109;-58
2021/11/07 09:55:31;;;;;;;1.30;1.00;;;20.40;56.00;;;;;;5034409;28;20028;-57
2021/11/07 09:57:59;;;;;;;1.67;1.10;;;20.30;55.90;;;;;;5032839;28;20130;-58
2021/11/07 10:00:47;;;;;;;1.75;1.00;;;20.40;56.00;;;;;;5029365;28;20060;-59
2021/11/07 10:03:16;;;;;;;1.63;1.02;;;20.40;56.00;;;;;;5034835;28;20108;-56
2021/11/07 10:05:47;;;;;;;2.28;1.30;;;20.30;56.00;;;;;;5037303;28;20029;-59
2021/11/07 10:08:13;;;;;;;1.92;1.30;;;20.30;56.00;;;;;;5036048;28;20099;-59
2021/11/07 10:11:04;;;;;;;2.25;1.20;;;20.40;56.10;;;;;;5039482;28;20066;-59
2021/11/07 10:13:28;;;;;;;1.80;1.00;;;20.30;56.00;;;;;;5036121;28;20041;-59
2021/11/07 10:16:02;;;;;;;2.53;1.10;;;20.40;56.10;;;;;;5034395;28;20033;-57
2021/11/07 10:18:58;;;;;;;1.88;1.10;;;20.40;56.20;;;;;;5038459;28;20022;-58
2021/11/07 10:21:36;;;;;;;1.42;1.10;;;20.30;56.10;;;;;;5033685;28;20025;-59
2021/11/07 10:24:08;;;;;;;1.63;0.95;;;20.40;56.20;;;;;;5031218;28;20083;-59
2021/11/07 10:26:37;;;;;;;1.48;0.95;;;20.40;56.20;;;;;;5042327;28;20056;-57
2021/11/07 10:29:06;;;;;;;2.23;1.10;;;20.30;56.20;;;;;;5039377;28;20029;-58
2021/11/07 10:43:00;;;;;;;1.70;1.20;;;20.30;56.30;;;;;;5013551;28;20521;-59
2021/11/07 10:45:29;;;;;;;1.70;1.08;;;20.30;56.40;;;;;;5037395;28;20038;-59
2021/11/07 10:53:27;;;;;;;1.48;1.10;;;20.30;56.40;;;;;;5034585;28;20043;-59
2021/11/07 10:55:57;;;;;;;2.25;1.35;;;20.30;56.50;;;;;;5037698;28;20172;-56
2021/11/07 10:58:32;;;;;;;2.08;1.17;;;20.30;56.50;;;;;;5034248;28;20029;-58
2021/11/07 11:01:01;;;;;;;2.72;1.30;;;20.30;56.60;;;;;;5028969;28;20061;-57
2021/11/07 11:03:27;;;;;;;1.60;1.00;;;20.30;56.50;;;;;;5034715;28;20029;-59
2021/11/07 11:06:00;;;;;;;2.58;1.20;;;20.30;56.60;;;;;;5040321;28;20051;-60
2021/11/07 11:08:37;;;;;;;1.85;1.20;;;20.30;56.60;;;;;;5042435;28;20033;-57
2021/11/07 11:16:40;;;;;;;3.60;1.30;;;20.30;57.20;;;;;;5042751;28;20029;-58
2021/11/07 11:19:36;;;;;;;2.65;1.38;;;20.40;57.40;;;;;;5037617;28;20037;-59
2021/11/07 11:40:37;;;;;;;3.20;1.30;;;20.50;57.90;;;;;;5037768;28;20052;-59
2021/11/07 11:43:09;;;;;;;3.22;1.17;;;20.70;57.80;;;;;;5038132;28;20499;-56
2021/11/07 11:45:39;;;;;;;2.60;1.15;;;20.70;57.60;;;;;;5038253;28;20033;-57
2021/11/07 11:54:03;;;;;;;2.30;1.27;;;20.80;57.30;;;;;;5033016;28;20056;-58
2021/11/07 11:56:20;;;;;;;2.58;1.42;;;20.80;57.10;;;;;;5030530;28;20045;-58
2021/11/07 12:01:38;;;;;;;2.13;1.20;;;20.90;57.20;;;;;;5033080;28;20040;-58
2021/11/07 12:04:35;;;;;;;1.67;1.13;;;20.90;57.10;;;;;;5038006;28;20052;-57
2021/11/07 12:07:22;;;;;;;2.75;1.40;;;20.90;57.00;;;;;;5032217;28;20045;-59
2021/11/07 12:09:57;;;;;;;2.30;1.20;;;21.00;56.90;;;;;;5039731;28;20052;-58
2021/11/07 12:12:35;;;;;;;1.90;1.20;;;21.00;56.70;;;;;;5034211;28;20766;-56
2021/11/07 12:15:09;;;;;;;2.75;1.20;;;21.00;56.70;;;;;;5038812;28;20842;-59
2021/11/07 12:17:41;;;;;;;2.72;1.30;;;21.10;56.60;;;;;;5035094;28;20032;-59
2021/11/07 12:20:30;;;;;;;2.33;1.20;;;21.10;56.40;;;;;;5038626;28;20561;-58
2021/11/07 12:23:26;;;;;;;2.45;1.17;;;21.10;56.40;;;;;;5035163;28;20125;-58
2021/11/07 12:25:54;;;;;;;1.90;1.10;;;21.10;56.30;;;;;;5039981;28;20131;-56
2021/11/07 12:28:39;;;;;;;2.55;1.25;;;21.10;56.20;;;;;;5037242;28;20473;-59
2021/11/07 12:31:06;;;;;;;2.05;1.20;;;21.10;56.10;;;;;;5038666;28;20140;-58
2021/11/07 12:33:54;;;;;;;2.83;1.33;;;21.10;56.10;;;;;;5036873;28;20064;-59
2021/11/07 12:42:17;;;;;;;1.92;1.13;;;21.20;56.10;;;;;;5034503;28;20139;-59
2021/11/07 12:44:49;;;;;;;2.25;1.20;;;21.10;56.00;;;;;;5037752;28;20108;-59
2021/11/07 12:47:16;;;;;;;3.03;1.27;;;21.20;56.10;;;;;;5030994;28;22059;-60
2021/11/07 12:49:59;;;;;;;2.10;1.27;;;21.20;56.10;;;;;;5037167;28;20032;-60
2021/11/07 12:52:25;;;;;;;1.75;1.08;;;21.20;56.10;;;;;;5035402;28;20555;-58
2021/11/07 12:54:51;;;;;;;1.75;1.15;;;21.20;56.00;;;;;;5039565;28;20037;-58
2021/11/07 12:57:19;;;;;;;1.55;1.00;;;21.20;56.00;;;;;;5033826;28;20413;-59
2021/11/07 12:59:57;;;;;;;1.57;1.10;;;21.20;55.90;;;;;;5035744;28;20041;-59
2021/11/07 13:02:30;;;;;;;1.77;1.10;;;21.20;55.90;;;;;;5034661;28;20291;-58
2021/11/07 13:04:57;;;;;;;2.10;1.10;;;21.20;55.90;;;;;;5038322;28;20024;-57
2021/11/07 13:07:28;;;;;;;2.20;1.20;;;21.20;55.90;;;;;;5038201;28;20017;-59
2021/11/07 13:10:00;;;;;;;1.77;1.08;;;21.20;55.80;;;;;;5035883;28;20064;-60
2021/11/07 13:18:05;;;;;;;2.10;1.30;;;21.20;55.70;;;;;;5035921;28;20036;-60
2021/11/07 13:26:10;;;;;;;1.95;1.13;;;21.20;55.70;;;;;;5034757;28;20036;-60
2021/11/07 13:28:40;;;;;;;1.77;1.10;;;21.20;55.70;;;;;;5036366;28;20029;-59
2021/11/07 13:31:20;;;;;;;2.20;1.15;;;21.20;55.70;;;;;;5036471;28;20048;-59
2021/11/07 13:33:46;;;;;;;1.75;1.13;;;21.20;55.70;;;;;;5036137;28;20037;-59
2021/11/07 13:36:17;;;;;;;2.20;0.93;;;21.20;55.70;;;;;;5035267;28;20868;-58
2021/11/07 13:39:01;;;;;;;1.70;1.10;;;21.20;55.70;;;;;;5035773;28;20107;-58
2021/11/07 13:41:27;;;;;;;1.70;1.00;;;21.20;55.70;;;;;;5037518;28;20824;-56
2021/11/07 13:44:14;;;;;;;2.17;1.10;;;21.20;55.60;;;;;;5033269;28;20044;-59
2021/11/07 13:47:02;;;;;;;2.03;1.30;;;21.20;55.70;;;;;;5038423;28;20029;-60
2021/11/07 13:49:29;;;;;;;3.65;1.20;;;21.20;55.70;;;;;;5038244;28;20041;-57
2021/11/07 13:52:03;;;;;;;2.65;1.30;;;21.20;55.70;;;;;;5037219;28;20028;-59
2021/11/07 13:54:35;;;;;;;2.00;1.20;;;21.20;55.60;;;;;;5038867;28;20025;-59
2021/11/07 13:57:01;;;;;;;2.05;1.00;;;21.20;55.60;;;;;;5034853;28;20481;-58
2021/11/07 13:59:32;;;;;;;2.20;1.08;;;21.20;55.60;;;;;;5035407;28;20087;-59
2021/11/07 14:01:58;;;;;;;1.77;1.20;;;21.20;55.60;;;;;;5036101;28;20040;-60
2021/11/07 14:04:37;;;;;;;1.90;1.15;;;21.20;55.70;;;;;;5037146;28;20029;-58
2021/11/07 14:07:15;;;;;;;2.60;1.30;;;21.20;55.60;;;;;;5034434;28;20461;-59
2021/11/07 14:10:02;;;;;;;3.03;1.27;;;21.20;55.60;;;;;;5038641;28;20092;-57
2021/11/07 14:12:41;;;;;;;1.92;1.02;;;21.20;55.70;;;;;;5033422;28;20169;-56
2021/11/07 14:15:09;;;;;;;1.70;1.10;;;21.20;55.60;;;;;;5039852;28;20056;-59
2021/11/07 14:17:36;;;;;;;1.50;0.95;;;21.20;55.60;;;;;;5036117;28;20768;-58
2021/11/07 14:20:04;;;;;;;1.70;1.17;;;21.20;55.60;;;;;;5037917;28;20071;-59
2021/11/07 14:22:30;;;;;;;1.27;1.00;;;21.20;55.60;;;;;;5037096;28;20037;-59
2021/11/07 14:25:06;;;;;;;1.60;1.08;;;21.20;55.60;;;;;;5039012;28;20025;-59
2021/11/07 14:27:42;;;;;;;2.35;1.30;;;21.20;55.60;;;;;;5035702;28;20053;-59
2021/11/07 14:30:15;;;;;;;1.20;1.00;;;21.20;55.60;;;;;;5037998;28;20819;-59
2021/11/07 14:32:42;;;;;;;1.42;1.10;;;21.20;55.60;;;;;;5036815;28;20029;-60
2021/11/07 14:35:17;;;;;;;1.95;1.20;;;21.20;55.60;;;;;;5039952;28;20047;-57
2021/11/07 14:37:59;;;;;;;1.52;1.10;;;21.20;55.60;;;;;;5036820;28;20033;-59
2021/11/07 14:40:37;;;;;;;1.88;1.20;;;21.20;55.60;;;;;;5036938;28;20048;-59
2021/11/07 14:46:22;;;;;;;1.70;1.17;;;21.20;55.70;;;;;;5022955;28;20049;-58
2021/11/07 14:49:19;;;;;;;1.05;0.90;;;21.20;55.70;;;;;;5038070;28;20030;-57
2021/11/07 14:54:44;;;;;;;1.77;1.10;;;21.20;55.70;;;;;;5041496;28;20481;-59
2021/11/07 15:00:12;;;;;;;1.73;1.27;;;21.20;55.70;;;;;;5040254;28;20131;-59
2021/11/07 15:08:35;;;;;;;2.08;1.10;;;21.20;55.70;;;;;;5036671;28;20065;-59
2021/11/07 15:11:25;;;;;;;1.77;1.10;;;21.20;55.70;;;;;;5020356;28;20044;-59
2021/11/07 15:14:06;;;;;;;;;;;21.20;55.70;;;;;;5037271;28;20576;-59
2021/11/07 15:19:13;;;;;;;1.40;1.10;;;21.20;55.70;;;;;;5034486;28;20040;-58
2021/11/07 15:21:55;;;;;;;1.73;1.10;;;21.20;55.70;;;;;;5037738;28;20033;-58
2021/11/07 15:24:42;;;;;;;2.50;1.50;;;21.20;55.80;;;;;;5033336;28;20030;-58
2021/11/07 15:27:19;;;;;;;2.03;1.30;;;21.30;55.90;;;;;;5037115;28;20728;-57
2021/11/07 15:30:00;;;;;;;2.70;1.67;;;21.40;55.70;;;;;;5038371;28;20048;-56
2021/11/07 15:32:30;;;;;;;2.35;1.20;;;21.50;55.40;;;;;;5033071;28;21002;-59
2021/11/07 15:34:56;;;;;;;2.45;1.10;;;21.60;55.40;;;;;;5040814;28;20807;-60
2021/11/07 15:37:25;;;;;;;1.60;1.17;;;21.70;55.40;;;;;;5033601;28;20093;-59
2021/11/07 15:39:53;;;;;;;1.63;1.10;;;21.80;55.30;;;;;;5036262;28;20468;-58
2021/11/07 15:42:23;;;;;;;1.90;1.20;;;21.80;55.20;;;;;;5032430;28;20052;-57